sensor_id;sensor_type;location;lat;lon;timestamp;pressure;altitude;pressure_sealevel;temperature;humidity
61769;BME280;47669;48.712;9.016;2023-02-14T00:01:45;98299.41;;;-2.74;nan
61769;BME280;47669;48.712;9.016;2023-02-14T00:04:10;98300.63;;;-2.80;nan
61769;BME280;47669;48.712;9.016;2023-02-14T00:06:37;98294.81;;;-2.84;nan
61769;BME280;47669;48.712;9.016;2023-02-14T00:09:07;98306.34;;;-2.61;nan
61769;BME280;47669;48.712;9.016;2023-02-14T00:11:34;98296.22;;;-2.78;nan
61769;BME280;47669;48.712;9.016;2023-02-14T00:13:59;98308.25;;;-2.79;nan
61769;BME280;47669;48.712;9.016;2023-02-14T00:16:43;98307.34;;;-2.78;nan
61769;BME280;47669;48.712;9.016;2023-02-14T00:19:11;98306.03;;;-2.85;nan
61769;BME280;47669;48.712;9.016;2023-02-14T00:21:37;98297.47;;;-2.71;nan
61769;BME280;47669;48.712;9.016;2023-02-14T00:24:04;98306.13;;;-2.86;nan
61769;BME280;47669;48.712;9.016;2023-02-14T00:26:30;98291.50;;;-2.71;nan
61769;BME280;47669;48.712;9.016;2023-02-14T00:28:55;98294.81;;;-2.84;nan
61769;BME280;47669;48.712;9.016;2023-02-14T00:31:21;98289.09;;;-3.03;nan
61769;BME280;47669;48.712;9.016;2023-02-14T00:33:46;98299.81;;;-2.66;nan
61769;BME280;47669;48.712;9.016;2023-02-14T00:36:11;98285.06;;;-2.93;nan
61769;BME280;47669;48.712;9.016;2023-02-14T00:38:37;98289.22;;;-2.76;nan
61769;BME280;47669;48.712;9.016;2023-02-14T00:41:02;98281.81;;;-2.97;nan
61769;BME280;47669;48.712;9.016;2023-02-14T00:43:29;98284.78;;;-3.03;nan
61769;BME280;47669;48.712;9.016;2023-02-14T00:45:54;98285.34;;;-2.83;nan
61769;BME280;47669;48.712;9.016;2023-02-14T00:48:19;98281.19;;;-3.00;nan
61769;BME280;47669;48.712;9.016;2023-02-14T00:50:45;98282.66;;;-2.96;nan
61769;BME280;47669;48.712;9.016;2023-02-14T00:53:10;98285.06;;;-3.07;nan
61769;BME280;47669;48.712;9.016;2023-02-14T00:55:36;98286.31;;;-3.00;nan
61769;BME280;47669;48.712;9.016;2023-02-14T00:58:01;98290.59;;;-2.99;nan
61769;BME280;47669;48.712;9.016;2023-02-14T01:00:26;98287.09;;;-2.84;nan
61769;BME280;47669;48.712;9.016;2023-02-14T01:02:51;98289.34;;;-3.08;nan
61769;BME280;47669;48.712;9.016;2023-02-14T01:05:17;98286.63;;;-3.05;nan
61769;BME280;47669;48.712;9.016;2023-02-14T01:07:42;98287.63;;;-2.93;nan
61769;BME280;47669;48.712;9.016;2023-02-14T01:10:07;98290.28;;;-3.09;nan
61769;BME280;47669;48.712;9.016;2023-02-14T01:12:33;98294.72;;;-3.11;nan
61769;BME280;47669;48.712;9.016;2023-02-14T01:14:58;98295.81;;;-3.15;nan
61769;BME280;47669;48.712;9.016;2023-02-14T01:17:23;98301.25;;;-3.05;nan
61769;BME280;47669;48.712;9.016;2023-02-14T01:19:53;98296.88;;;-3.19;nan
61769;BME280;47669;48.712;9.016;2023-02-14T01:22:18;98294.66;;;-3.25;nan
61769;BME280;47669;48.712;9.016;2023-02-14T01:24:43;98296.34;;;-3.10;nan
61769;BME280;47669;48.712;9.016;2023-02-14T01:27:09;98295.63;;;-3.12;nan
61769;BME280;47669;48.712;9.016;2023-02-14T01:29:34;98293.97;;;-3.13;nan
61769;BME280;47669;48.712;9.016;2023-02-14T01:32:00;98296.50;;;-3.27;nan
61769;BME280;47669;48.712;9.016;2023-02-14T01:34:25;98294.50;;;-3.22;nan
61769;BME280;47669;48.712;9.016;2023-02-14T01:36:50;98291.56;;;-3.30;nan
61769;BME280;47669;48.712;9.016;2023-02-14T01:39:15;98285.38;;;-3.28;nan
61769;BME280;47669;48.712;9.016;2023-02-14T01:41:43;98288.91;;;-3.14;nan
61769;BME280;47669;48.712;9.016;2023-02-14T01:46:39;98289.63;;;-3.12;nan
61769;BME280;47669;48.712;9.016;2023-02-14T01:51:49;98286.56;;;-3.19;nan
61769;BME280;47669;48.712;9.016;2023-02-14T01:54:16;98285.59;;;-3.17;nan
61769;BME280;47669;48.712;9.016;2023-02-14T01:56:46;98292.59;;;-3.04;nan
61769;BME280;47669;48.712;9.016;2023-02-14T01:59:16;98297.94;;;-3.07;nan
61769;BME280;47669;48.712;9.016;2023-02-14T02:01:44;98295.44;;;-3.09;nan
61769;BME280;47669;48.712;9.016;2023-02-14T02:04:13;98298.22;;;-2.98;nan
61769;BME280;47669;48.712;9.016;2023-02-14T02:06:47;98289.00;;;-3.16;nan
61769;BME280;47669;48.712;9.016;2023-02-14T02:11:53;98286.97;;;-3.11;nan
61769;BME280;47669;48.712;9.016;2023-02-14T02:14:21;98292.94;;;-3.25;nan
61769;BME280;47669;48.712;9.016;2023-02-14T02:17:10;98293.31;;;-3.17;nan
61769;BME280;47669;48.712;9.016;2023-02-14T02:48:39;98277.03;;;-3.62;nan
61769;BME280;47669;48.712;9.016;2023-02-14T02:51:11;98277.50;;;-3.55;nan
61769;BME280;47669;48.712;9.016;2023-02-14T02:54:08;98272.91;;;-3.80;nan
61769;BME280;47669;48.712;9.016;2023-02-14T02:56:45;98277.66;;;-3.58;nan
61769;BME280;47669;48.712;9.016;2023-02-14T03:04:43;98268.06;;;-3.70;nan
61769;BME280;47669;48.712;9.016;2023-02-14T03:07:35;98264.47;;;-3.68;nan
61769;BME280;47669;48.712;9.016;2023-02-14T03:18:26;98276.00;;;-3.73;nan
61769;BME280;47669;48.712;9.016;2023-02-14T03:24:13;98275.75;;;-3.85;nan
61769;BME280;47669;48.712;9.016;2023-02-14T03:26:49;98268.06;;;-3.70;nan
61769;BME280;47669;48.712;9.016;2023-02-14T03:29:28;98265.53;;;-3.86;nan
61769;BME280;47669;48.712;9.016;2023-02-14T03:32:09;98270.84;;;-3.89;nan
61769;BME280;47669;48.712;9.016;2023-02-14T03:34:47;98267.63;;;-3.93;nan
61769;BME280;47669;48.712;9.016;2023-02-14T03:37:38;98267.53;;;-3.91;nan
61769;BME280;47669;48.712;9.016;2023-02-14T03:40:23;98272.81;;;-3.79;nan
61769;BME280;47669;48.712;9.016;2023-02-14T03:43:17;98276.22;;;-3.78;nan
61769;BME280;47669;48.712;9.016;2023-02-14T03:46:12;98282.38;;;-3.81;nan
61769;BME280;47669;48.712;9.016;2023-02-14T03:48:37;98280.66;;;-3.96;nan
61769;BME280;47669;48.712;9.016;2023-02-14T03:51:06;98274.78;;;-3.98;nan
61769;BME280;47669;48.712;9.016;2023-02-14T03:53:35;98280.25;;;-4.04;nan
61769;BME280;47669;48.712;9.016;2023-02-14T03:58:36;98271.28;;;-3.97;nan
61769;BME280;47669;48.712;9.016;2023-02-14T04:01:10;98268.97;;;-4.02;nan
61769;BME280;47669;48.712;9.016;2023-02-14T04:03:39;98268.22;;;-4.04;nan
61769;BME280;47669;48.712;9.016;2023-02-14T04:06:05;98265.16;;;-4.10;nan
61769;BME280;47669;48.712;9.016;2023-02-14T04:08:31;98261.59;;;-3.78;nan
61769;BME280;47669;48.712;9.016;2023-02-14T04:10:58;98260.16;;;-3.98;nan
61769;BME280;47669;48.712;9.016;2023-02-14T04:13:24;98260.84;;;-4.10;nan
61769;BME280;47669;48.712;9.016;2023-02-14T04:15:49;98257.22;;;-4.22;nan
61769;BME280;47669;48.712;9.016;2023-02-14T04:18:15;98260.00;;;-3.94;nan
61769;BME280;47669;48.712;9.016;2023-02-14T04:20:58;98255.69;;;-4.10;nan
61769;BME280;47669;48.712;9.016;2023-02-14T04:23:24;98260.94;;;-4.11;nan
61769;BME280;47669;48.712;9.016;2023-02-14T04:25:49;98260.19;;;-4.29;nan
61769;BME280;47669;48.712;9.016;2023-02-14T04:28:14;98259.78;;;-4.22;nan
61769;BME280;47669;48.712;9.016;2023-02-14T04:30:39;98263.16;;;-4.05;nan
61769;BME280;47669;48.712;9.016;2023-02-14T04:33:05;98254.88;;;-4.26;nan
61769;BME280;47669;48.712;9.016;2023-02-14T04:35:32;98264.00;;;-4.37;nan
61769;BME280;47669;48.712;9.016;2023-02-14T04:37:57;98253.22;;;-4.27;nan
61769;BME280;47669;48.712;9.016;2023-02-14T04:40:22;98242.72;;;-3.92;nan
61769;BME280;47669;48.712;9.016;2023-02-14T04:42:48;98247.97;;;-4.10;nan
61769;BME280;47669;48.712;9.016;2023-02-14T04:45:13;98252.72;;;-4.50;nan
61769;BME280;47669;48.712;9.016;2023-02-14T04:47:39;98252.22;;;-4.41;nan
61769;BME280;47669;48.712;9.016;2023-02-14T04:50:05;98245.53;;;-4.43;nan
61769;BME280;47669;48.712;9.016;2023-02-14T04:52:30;98246.94;;;-4.38;nan
61769;BME280;47669;48.712;9.016;2023-02-14T04:54:55;98254.06;;;-4.43;nan
61769;BME280;47669;48.712;9.016;2023-02-14T04:57:21;98248.66;;;-4.38;nan
61769;BME280;47669;48.712;9.016;2023-02-14T04:59:46;98249.66;;;-4.41;nan
61769;BME280;47669;48.712;9.016;2023-02-14T05:02:11;98253.06;;;-4.56;nan
61769;BME280;47669;48.712;9.016;2023-02-14T05:04:36;98250.16;;;-4.50;nan
61769;BME280;47669;48.712;9.016;2023-02-14T05:07:02;98250.34;;;-4.53;nan
61769;BME280;47669;48.712;9.016;2023-02-14T05:09:27;98246.59;;;-4.47;nan
61769;BME280;47669;48.712;9.016;2023-02-14T05:11:53;98248.41;;;-4.33;nan
61769;BME280;47669;48.712;9.016;2023-02-14T05:14:18;98245.56;;;-4.13;nan
61769;BME280;47669;48.712;9.016;2023-02-14T05:16:43;98239.31;;;-3.93;nan
61769;BME280;47669;48.712;9.016;2023-02-14T05:19:09;98241.66;;;-4.04;nan
61769;BME280;47669;48.712;9.016;2023-02-14T05:21:34;98237.78;;;-4.27;nan
61769;BME280;47669;48.712;9.016;2023-02-14T05:23:59;98253.47;;;-4.64;nan
61769;BME280;47669;48.712;9.016;2023-02-14T05:26:25;98247.75;;;-4.69;nan
61769;BME280;47669;48.712;9.016;2023-02-14T05:28:50;98250.97;;;-4.65;nan
61769;BME280;47669;48.712;9.016;2023-02-14T05:31:15;98252.72;;;-4.50;nan
61769;BME280;47669;48.712;9.016;2023-02-14T05:33:41;98246.41;;;-4.44;nan
61769;BME280;47669;48.712;9.016;2023-02-14T05:36:06;98260.63;;;-4.53;nan
61769;BME280;47669;48.712;9.016;2023-02-14T05:38:31;98251.22;;;-4.38;nan
61769;BME280;47669;48.712;9.016;2023-02-14T05:40:58;98251.63;;;-4.62;nan
61769;BME280;47669;48.712;9.016;2023-02-14T05:43:24;98255.38;;;-4.51;nan
61769;BME280;47669;48.712;9.016;2023-02-14T05:45:50;98261.03;;;-4.61;nan
61769;BME280;47669;48.712;9.016;2023-02-14T05:48:15;98265.00;;;-4.55;nan
61769;BME280;47669;48.712;9.016;2023-02-14T05:50:41;98261.03;;;-4.61;nan
61769;BME280;47669;48.712;9.016;2023-02-14T05:53:07;98262.44;;;-4.39;nan
61769;BME280;47669;48.712;9.016;2023-02-14T05:55:33;98258.03;;;-4.37;nan
61769;BME280;47669;48.712;9.016;2023-02-14T05:57:58;98265.41;;;-4.63;nan
61769;BME280;47669;48.712;9.016;2023-02-14T06:00:23;98269.22;;;-4.54;nan
61769;BME280;47669;48.712;9.016;2023-02-14T06:02:49;98269.41;;;-4.57;nan
61769;BME280;47669;48.712;9.016;2023-02-14T06:05:15;98262.84;;;-4.63;nan
61769;BME280;47669;48.712;9.016;2023-02-14T06:07:42;98262.09;;;-4.65;nan
61769;BME280;47669;48.712;9.016;2023-02-14T06:10:09;98261.09;;;-4.78;nan
61769;BME280;47669;48.712;9.016;2023-02-14T06:12:35;98266.56;;;-4.84;nan
61769;BME280;47669;48.712;9.016;2023-02-14T06:15:00;98263.31;;;-4.88;nan
61769;BME280;47669;48.712;9.016;2023-02-14T06:17:25;98261.41;;;-4.84;nan
61769;BME280;47669;48.712;9.016;2023-02-14T06:19:50;98260.84;;;-4.73;nan
61769;BME280;47669;48.712;9.016;2023-02-14T06:22:16;98265.56;;;-4.50;nan
61769;BME280;47669;48.712;9.016;2023-02-14T06:24:41;98267.88;;;-4.61;nan
61769;BME280;47669;48.712;9.016;2023-02-14T06:27:06;98270.31;;;-4.58;nan
61769;BME280;47669;48.712;9.016;2023-02-14T06:29:31;98282.72;;;-4.82;nan
61769;BME280;47669;48.712;9.016;2023-02-14T06:31:57;98288.44;;;-4.61;nan
61769;BME280;47669;48.712;9.016;2023-02-14T06:34:29;98285.47;;;-4.69;nan
61769;BME280;47669;48.712;9.016;2023-02-14T06:36:55;98289.72;;;-4.68;nan
61769;BME280;47669;48.712;9.016;2023-02-14T06:39:20;98289.13;;;-4.58;nan
61769;BME280;47669;48.712;9.016;2023-02-14T06:41:45;98285.25;;;-4.65;nan
61769;BME280;47669;48.712;9.016;2023-02-14T06:44:10;98279.03;;;-4.45;nan
61769;BME280;47669;48.712;9.016;2023-02-14T06:46:36;98286.66;;;-4.43;nan
61769;BME280;47669;48.712;9.016;2023-02-14T06:49:01;98281.09;;;-4.20;nan
61769;BME280;47669;48.712;9.016;2023-02-14T06:51:26;98275.63;;;-4.13;nan
61769;BME280;47669;48.712;9.016;2023-02-14T06:53:51;98284.25;;;-4.30;nan
61769;BME280;47669;48.712;9.016;2023-02-14T06:56:17;98280.81;;;-3.99;nan
61769;BME280;47669;48.712;9.016;2023-02-14T06:58:42;98271.63;;;-4.19;nan
61769;BME280;47669;48.712;9.016;2023-02-14T07:01:09;98275.97;;;-4.20;nan
61769;BME280;47669;48.712;9.016;2023-02-14T07:03:34;98275.56;;;-4.28;nan
61769;BME280;47669;48.712;9.016;2023-02-14T07:06:00;98280.84;;;-4.31;nan
61769;BME280;47669;48.712;9.016;2023-02-14T07:08:25;98273.44;;;-4.05;nan
61769;BME280;47669;48.712;9.016;2023-02-14T07:10:54;98262.91;;;-3.70;nan
61769;BME280;47669;48.712;9.016;2023-02-14T07:13:20;98257.03;;;-3.72;nan
61769;BME280;47669;48.712;9.016;2023-02-14T07:15:46;98265.81;;;-3.61;nan
61769;BME280;47669;48.712;9.016;2023-02-14T07:18:11;98262.31;;;-3.60;nan
61769;BME280;47669;48.712;9.016;2023-02-14T07:20:36;98261.66;;;-3.63;nan
61769;BME280;47669;48.712;9.016;2023-02-14T07:23:02;98266.22;;;-3.68;nan
61769;BME280;47669;48.712;9.016;2023-02-14T07:25:27;98256.50;;;-3.63;nan
61769;BME280;47669;48.712;9.016;2023-02-14T07:27:53;98256.44;;;-3.17;nan
61769;BME280;47669;48.712;9.016;2023-02-14T07:30:18;98253.94;;;-2.90;nan
61769;BME280;47669;48.712;9.016;2023-02-14T07:32:44;98258.72;;;-2.69;nan
61769;BME280;47669;48.712;9.016;2023-02-14T07:35:09;98251.34;;;-3.04;nan
61769;BME280;47669;48.712;9.016;2023-02-14T07:37:35;98251.66;;;-1.06;nan
61769;BME280;47669;48.712;9.016;2023-02-14T07:40:00;98240.97;;;-0.26;nan
61769;BME280;47669;48.712;9.016;2023-02-14T07:42:26;98237.03;;;1.33;nan
61769;BME280;47669;48.712;9.016;2023-02-14T07:44:51;98230.56;;;2.68;nan
61769;BME280;47669;48.712;9.016;2023-02-14T07:47:16;98231.78;;;3.56;nan
61769;BME280;47669;48.712;9.016;2023-02-14T07:49:42;98233.72;;;5.38;nan
61769;BME280;47669;48.712;9.016;2023-02-14T07:52:08;98234.47;;;5.48;nan
61769;BME280;47669;48.712;9.016;2023-02-14T07:54:33;98232.66;;;4.83;nan
61769;BME280;47669;48.712;9.016;2023-02-14T07:56:58;98224.91;;;6.12;nan
61769;BME280;47669;48.712;9.016;2023-02-14T07:59:24;98229.13;;;7.19;nan
61769;BME280;47669;48.712;9.016;2023-02-14T08:01:49;98233.22;;;7.22;nan
61769;BME280;47669;48.712;9.016;2023-02-14T08:04:14;98233.72;;;7.52;nan
61769;BME280;47669;48.712;9.016;2023-02-14T08:06:40;98227.94;;;6.61;nan
61769;BME280;47669;48.712;9.016;2023-02-14T08:09:07;98224.75;;;5.96;nan
61769;BME280;47669;48.712;9.016;2023-02-14T08:11:34;98231.31;;;6.71;nan
61769;BME280;47669;48.712;9.016;2023-02-14T08:14:18;98235.00;;;6.87;nan
61769;BME280;47669;48.712;9.016;2023-02-14T08:16:43;98221.31;;;7.78;nan
61769;BME280;47669;48.712;9.016;2023-02-14T08:19:09;98228.78;;;6.62;nan
61769;BME280;47669;48.712;9.016;2023-02-14T08:21:34;98215.88;;;2.04;nan
61769;BME280;47669;48.712;9.016;2023-02-14T08:23:59;98223.59;;;0.94;nan
61769;BME280;47669;48.712;9.016;2023-02-14T08:26:25;98228.16;;;0.79;nan
61769;BME280;47669;48.712;9.016;2023-02-14T08:28:50;98220.97;;;0.71;nan
61769;BME280;47669;48.712;9.016;2023-02-14T08:31:27;98225.44;;;0.69;nan
61769;BME280;47669;48.712;9.016;2023-02-14T08:33:53;98221.00;;;1.05;nan
61769;BME280;47669;48.712;9.016;2023-02-14T08:36:18;98222.63;;;0.95;nan
61769;BME280;47669;48.712;9.016;2023-02-14T08:38:44;98222.28;;;1.11;nan
61769;BME280;47669;48.712;9.016;2023-02-14T08:41:12;98233.03;;;1.29;nan
61769;BME280;47669;48.712;9.016;2023-02-14T08:43:37;98234.66;;;1.18;nan
61769;BME280;47669;48.712;9.016;2023-02-14T08:46:03;98230.78;;;1.35;nan
61769;BME280;47669;48.712;9.016;2023-02-14T08:48:28;98225.34;;;1.38;nan
61769;BME280;47669;48.712;9.016;2023-02-14T08:50:53;98231.06;;;1.76;nan
61769;BME280;47669;48.712;9.016;2023-02-14T08:53:19;98226.38;;;2.02;nan
61769;BME280;47669;48.712;9.016;2023-02-14T08:55:46;98227.53;;;2.09;nan
61769;BME280;47669;48.712;9.016;2023-02-14T08:58:11;98223.03;;;2.44;nan
61769;BME280;47669;48.712;9.016;2023-02-14T09:00:37;98220.22;;;2.56;nan
61769;BME280;47669;48.712;9.016;2023-02-14T09:03:02;98218.44;;;2.78;nan
61769;BME280;47669;48.712;9.016;2023-02-14T09:05:28;98221.47;;;3.04;nan
61769;BME280;47669;48.712;9.016;2023-02-14T09:07:53;98211.94;;;3.24;nan
61769;BME280;47669;48.712;9.016;2023-02-14T09:10:22;98217.88;;;3.36;nan
61769;BME280;47669;48.712;9.016;2023-02-14T09:12:49;98212.97;;;3.43;nan
61769;BME280;47669;48.712;9.016;2023-02-14T09:15:14;98206.16;;;3.61;nan
61769;BME280;47669;48.712;9.016;2023-02-14T09:17:39;98213.03;;;3.62;nan
61769;BME280;47669;48.712;9.016;2023-02-14T09:20:06;98197.44;;;3.82;nan
61769;BME280;47669;48.712;9.016;2023-02-14T09:22:33;98198.00;;;4.24;nan
61769;BME280;47669;48.712;9.016;2023-02-14T09:24:59;98191.69;;;3.88;nan
61769;BME280;47669;48.712;9.016;2023-02-14T09:27:24;98193.84;;;4.51;nan
61769;BME280;47669;48.712;9.016;2023-02-14T09:29:50;98201.63;;;4.70;nan
61769;BME280;47669;48.712;9.016;2023-02-14T09:32:16;98197.78;;;4.65;nan
61769;BME280;47669;48.712;9.016;2023-02-14T09:34:41;98195.13;;;4.84;nan
61769;BME280;47669;48.712;9.016;2023-02-14T09:37:09;98193.09;;;4.78;nan
61769;BME280;47669;48.712;9.016;2023-02-14T09:39:36;98200.72;;;4.99;nan
61769;BME280;47669;48.712;9.016;2023-02-14T09:42:20;98183.81;;;5.03;nan
61769;BME280;47669;48.712;9.016;2023-02-14T09:44:54;98186.59;;;4.92;nan
61769;BME280;47669;48.712;9.016;2023-02-14T09:47:35;98186.88;;;5.72;nan
61769;BME280;47669;48.712;9.016;2023-02-14T09:50:06;98182.81;;;5.42;nan
61769;BME280;47669;48.712;9.016;2023-02-14T09:52:37;98177.91;;;6.20;nan
61769;BME280;47669;48.712;9.016;2023-02-14T09:55:03;98187.75;;;5.17;nan
61769;BME280;47669;48.712;9.016;2023-02-14T10:00:45;98178.81;;;6.29;nan
61769;BME280;47669;48.712;9.016;2023-02-14T10:06:25;98170.88;;;6.65;nan
61769;BME280;47669;48.712;9.016;2023-02-14T10:09:21;98168.41;;;6.89;nan
61769;BME280;47669;48.712;9.016;2023-02-14T10:11:49;98166.88;;;7.13;nan
61769;BME280;47669;48.712;9.016;2023-02-14T10:14:18;98177.69;;;6.84;nan
61769;BME280;47669;48.712;9.016;2023-02-14T10:16:49;98161.09;;;7.01;nan
61769;BME280;47669;48.712;9.016;2023-02-14T10:19:21;98155.06;;;7.01;nan
61769;BME280;47669;48.712;9.016;2023-02-14T10:21:53;98161.81;;;7.20;nan
61769;BME280;47669;48.712;9.016;2023-02-14T10:26:48;98158.78;;;7.41;nan
61769;BME280;47669;48.712;9.016;2023-02-14T10:29:16;98151.34;;;7.20;nan
61769;BME280;47669;48.712;9.016;2023-02-14T10:31:57;98147.19;;;7.43;nan
61769;BME280;47669;48.712;9.016;2023-02-14T10:34:46;98154.16;;;7.26;nan
61769;BME280;47669;48.712;9.016;2023-02-14T10:37:24;98146.47;;;7.92;nan
61769;BME280;47669;48.712;9.016;2023-02-14T10:46:02;98142.41;;;7.39;nan
61769;BME280;47669;48.712;9.016;2023-02-14T10:51:26;98132.81;;;7.64;nan
61769;BME280;47669;48.712;9.016;2023-02-14T10:56:31;98134.00;;;8.68;nan
61769;BME280;47669;48.712;9.016;2023-02-14T10:59:16;98130.88;;;9.12;nan
61769;BME280;47669;48.712;9.016;2023-02-14T11:01:44;98127.44;;;8.39;nan
61769;BME280;47669;48.712;9.016;2023-02-14T11:04:10;98121.22;;;8.57;nan
61769;BME280;47669;48.712;9.016;2023-02-14T11:06:38;98117.63;;;9.05;nan
61769;BME280;47669;48.712;9.016;2023-02-14T11:09:03;98119.88;;;9.17;nan
61769;BME280;47669;48.712;9.016;2023-02-14T11:11:42;98114.47;;;9.41;nan
61769;BME280;47669;48.712;9.016;2023-02-14T11:14:21;98108.78;;;8.98;nan
61769;BME280;47669;48.712;9.016;2023-02-14T11:16:48;98102.69;;;8.09;nan
61769;BME280;47669;48.712;9.016;2023-02-14T11:21:48;98098.22;;;9.06;nan
61769;BME280;47669;48.712;9.016;2023-02-14T11:24:16;98099.66;;;10.18;nan
61769;BME280;47669;48.712;9.016;2023-02-14T11:26:45;98088.94;;;9.27;nan
61769;BME280;47669;48.712;9.016;2023-02-14T11:29:15;98094.75;;;9.14;nan
61769;BME280;47669;48.712;9.016;2023-02-14T11:31:41;98089.28;;;10.39;nan
61769;BME280;47669;48.712;9.016;2023-02-14T11:35:06;98082.97;;;11.88;nan
61769;BME280;47669;48.712;9.016;2023-02-14T11:37:27;98081.19;;;14.69;nan
61769;BME280;47669;48.712;9.016;2023-02-14T11:39:55;98077.94;;;13.94;nan
61769;BME280;47669;48.712;9.016;2023-02-14T11:45:41;98065.25;;;13.43;nan
61769;BME280;47669;48.712;9.016;2023-02-14T11:50:53;98054.25;;;15.94;nan
61769;BME280;47669;48.712;9.016;2023-02-14T11:53:22;98058.16;;;14.50;nan
61769;BME280;47669;48.712;9.016;2023-02-14T11:55:56;98049.81;;;14.33;nan
61769;BME280;47669;48.712;9.016;2023-02-14T11:58:34;98047.41;;;15.03;nan
61769;BME280;47669;48.712;9.016;2023-02-14T12:01:01;98045.28;;;16.39;nan
61769;BME280;47669;48.712;9.016;2023-02-14T12:03:52;98045.84;;;16.66;nan
61769;BME280;47669;48.712;9.016;2023-02-14T12:06:25;98043.63;;;16.20;nan
61769;BME280;47669;48.712;9.016;2023-02-14T12:11:56;98039.25;;;15.43;nan
61769;BME280;47669;48.712;9.016;2023-02-14T12:14:24;98030.59;;;15.23;nan
61769;BME280;47669;48.712;9.016;2023-02-14T12:16:57;98033.78;;;16.02;nan
61769;BME280;47669;48.712;9.016;2023-02-14T12:19:34;98033.63;;;16.77;nan
61769;BME280;47669;48.712;9.016;2023-02-14T12:22:05;98028.88;;;16.24;nan
61769;BME280;47669;48.712;9.016;2023-02-14T12:25:19;98023.38;;;15.68;nan
61769;BME280;47669;48.712;9.016;2023-02-14T12:27:27;98024.34;;;17.35;nan
61769;BME280;47669;48.712;9.016;2023-02-14T12:32:25;98017.97;;;16.69;nan
61769;BME280;47669;48.712;9.016;2023-02-14T12:37:38;98010.47;;;16.84;nan
61769;BME280;47669;48.712;9.016;2023-02-14T12:50:49;97994.25;;;18.83;nan
61769;BME280;47669;48.712;9.016;2023-02-14T12:56:09;97987.88;;;16.13;nan
61769;BME280;47669;48.712;9.016;2023-02-14T12:58:43;97990.44;;;18.55;nan
61769;BME280;47669;48.712;9.016;2023-02-14T13:06:37;97962.78;;;19.42;nan
61769;BME280;47669;48.712;9.016;2023-02-14T13:15:10;97967.50;;;20.03;nan
61769;BME280;47669;48.712;9.016;2023-02-14T13:17:43;97959.19;;;18.15;nan
61769;BME280;47669;48.712;9.016;2023-02-14T13:20:44;97955.59;;;19.14;nan
61769;BME280;47669;48.712;9.016;2023-02-14T13:23:15;97956.75;;;18.37;nan
61769;BME280;47669;48.712;9.016;2023-02-14T13:25:46;97949.75;;;19.00;nan
61769;BME280;47669;48.712;9.016;2023-02-14T13:28:14;97950.28;;;18.21;nan
61769;BME280;47669;48.712;9.016;2023-02-14T13:30:40;97949.16;;;18.58;nan
61769;BME280;47669;48.712;9.016;2023-02-14T13:33:34;97943.91;;;20.17;nan
61769;BME280;47669;48.712;9.016;2023-02-14T13:36:04;97946.91;;;20.03;nan
61769;BME280;47669;48.712;9.016;2023-02-14T13:38:31;97949.88;;;21.12;nan
61769;BME280;47669;48.712;9.016;2023-02-14T13:41:00;97943.91;;;21.05;nan
61769;BME280;47669;48.712;9.016;2023-02-14T13:46:11;97936.97;;;21.04;nan
61769;BME280;47669;48.712;9.016;2023-02-14T13:48:36;97939.84;;;20.75;nan
61769;BME280;47669;48.712;9.016;2023-02-14T13:51:04;97927.50;;;20.08;nan
61769;BME280;47669;48.712;9.016;2023-02-14T13:53:44;97926.66;;;21.82;nan
61769;BME280;47669;48.712;9.016;2023-02-14T13:58:54;97924.59;;;21.30;nan
61769;BME280;47669;48.712;9.016;2023-02-14T14:01:27;97937.50;;;21.33;nan
61769;BME280;47669;48.712;9.016;2023-02-14T14:03:57;97923.41;;;19.04;nan
61769;BME280;47669;48.712;9.016;2023-02-14T14:06:23;97928.69;;;18.75;nan
61769;BME280;47669;48.712;9.016;2023-02-14T14:08:50;97925.38;;;21.25;nan
61769;BME280;47669;48.712;9.016;2023-02-14T14:18:49;97917.63;;;19.92;nan
61769;BME280;47669;48.712;9.016;2023-02-14T14:21:38;97911.69;;;18.64;nan
61769;BME280;47669;48.712;9.016;2023-02-14T14:26:59;97916.59;;;16.84;nan
61769;BME280;47669;48.712;9.016;2023-02-14T14:31:56;97918.88;;;18.23;nan
61769;BME280;47669;48.712;9.016;2023-02-14T14:34:26;97921.63;;;17.46;nan
61769;BME280;47669;48.712;9.016;2023-02-14T14:37:02;97919.31;;;17.73;nan
61769;BME280;47669;48.712;9.016;2023-02-14T14:39:30;97912.50;;;16.32;nan
61769;BME280;47669;48.712;9.016;2023-02-14T14:42:07;97915.31;;;17.17;nan
61769;BME280;47669;48.712;9.016;2023-02-14T14:44:34;97924.06;;;17.05;nan
61769;BME280;47669;48.712;9.016;2023-02-14T14:47:01;97921.28;;;17.12;nan
61769;BME280;47669;48.712;9.016;2023-02-14T14:49:27;97914.69;;;17.03;nan
61769;BME280;47669;48.712;9.016;2023-02-14T14:51:54;97911.09;;;18.22;nan
61769;BME280;47669;48.712;9.016;2023-02-14T14:54:21;97910.72;;;16.08;nan
61769;BME280;47669;48.712;9.016;2023-02-14T14:56:51;97909.94;;;15.57;nan
61769;BME280;47669;48.712;9.016;2023-02-14T15:01:47;97919.53;;;17.60;nan
61769;BME280;47669;48.712;9.016;2023-02-14T15:04:28;97914.06;;;17.43;nan
61769;BME280;47669;48.712;9.016;2023-02-14T15:06:56;97912.38;;;17.96;nan
61769;BME280;47669;48.712;9.016;2023-02-14T15:09:30;97910.81;;;16.68;nan
61769;BME280;47669;48.712;9.016;2023-02-14T15:11:57;97908.25;;;15.63;nan
61769;BME280;47669;48.712;9.016;2023-02-14T15:14:44;97903.00;;;16.55;nan
61769;BME280;47669;48.712;9.016;2023-02-14T15:17:25;97910.81;;;16.50;nan
61769;BME280;47669;48.712;9.016;2023-02-14T15:19:56;97905.25;;;15.52;nan
61769;BME280;47669;48.712;9.016;2023-02-14T15:22:28;97901.94;;;14.68;nan
61769;BME280;47669;48.712;9.016;2023-02-14T15:24:54;97907.59;;;14.78;nan
61769;BME280;47669;48.712;9.016;2023-02-14T15:27:23;97907.03;;;13.11;nan
61769;BME280;47669;48.712;9.016;2023-02-14T15:30:00;97899.66;;;12.18;nan
61769;BME280;47669;48.712;9.016;2023-02-14T15:32:29;97891.75;;;11.34;nan
61769;BME280;47669;48.712;9.016;2023-02-14T15:34:55;97896.50;;;11.17;nan
61769;BME280;47669;48.712;9.016;2023-02-14T15:37:22;97895.47;;;11.18;nan
61769;BME280;47669;48.712;9.016;2023-02-14T15:39:50;97901.84;;;11.30;nan
61769;BME280;47669;48.712;9.016;2023-02-14T15:42:27;97901.88;;;10.87;nan
61769;BME280;47669;48.712;9.016;2023-02-14T15:45:27;97903.66;;;11.51;nan
61769;BME280;47669;48.712;9.016;2023-02-14T15:47:57;97906.25;;;11.44;nan
61769;BME280;47669;48.712;9.016;2023-02-14T15:50:28;97911.28;;;10.75;nan
61769;BME280;47669;48.712;9.016;2023-02-14T15:53:05;97916.94;;;9.82;nan
61769;BME280;47669;48.712;9.016;2023-02-14T15:55:31;97914.47;;;9.28;nan